Time;durP1;ratioP1;P1;durP2;ratioP2;P2;SDS_P1;SDS_P2;PMS_P1;PMS_P2;Temp;Humidity;BMP_temperature;BMP_pressure;BME280_temperature;BME280_humidity;BME280_pressure;Samples;Min_cycle;Max_cycle;Signal;HPM_P1;HPM_P2
2023/11/18 00:00:00;;;;;;;17.20;8.52;;;6.60;99.90;;;;;;6213280;23;20350;-75
2023/11/18 00:02:26;;;;;;;21.98;9.20;;;6.60;99.90;;;;;;6211931;23;20021;-76
2023/11/18 00:04:51;;;;;;;21.60;8.93;;;6.60;99.90;;;;;;6210320;23;20008;-77
2023/11/18 00:07:17;;;;;;;17.92;8.48;;;6.60;99.90;;;;;;6211852;23;20019;-76
2023/11/18 00:09:45;;;;;;;20.00;7.97;;;6.60;99.90;;;;;;6212415;23;20013;-76
2023/11/18 00:12:11;;;;;;;21.13;8.65;;;6.60;99.90;;;;;;6211573;23;20036;-75
2023/11/18 00:14:38;;;;;;;20.40;9.10;;;6.60;99.90;;;;;;6211999;23;20020;-76
2023/11/18 00:17:04;;;;;;;16.48;7.53;;;6.60;99.90;;;;;;6214042;23;20016;-75
2023/11/18 00:19:30;;;;;;;17.85;8.57;;;6.70;99.90;;;;;;6213400;23;20016;-75
2023/11/18 00:21:55;;;;;;;24.60;8.40;;;6.60;99.90;;;;;;6212950;23;20001;-76
2023/11/18 00:24:21;;;;;;;24.33;8.93;;;6.70;99.90;;;;;;6213144;23;20009;-74
2023/11/18 00:26:46;;;;;;;18.90;8.80;;;6.70;99.90;;;;;;6212084;23;20104;-76
2023/11/18 00:29:12;;;;;;;17.17;7.45;;;6.70;99.90;;;;;;6211552;23;20005;-77
2023/11/18 00:31:38;;;;;;;15.70;8.45;;;6.70;99.90;;;;;;6212335;23;20012;-75
2023/11/18 00:34:03;;;;;;;19.83;7.85;;;6.70;99.90;;;;;;6213116;23;20060;-75
2023/11/18 00:36:29;;;;;;;17.60;7.75;;;6.70;99.90;;;;;;6210881;23;20192;-75
2023/11/18 00:38:55;;;;;;;17.38;6.93;;;6.70;99.90;;;;;;6209351;23;20434;-76
2023/11/18 00:41:21;;;;;;;17.27;7.30;;;6.70;99.90;;;;;;6213184;23;20013;-78
2023/11/18 00:43:46;;;;;;;18.30;7.68;;;6.70;99.90;;;;;;6212150;23;20442;-74
2023/11/18 00:46:12;;;;;;;14.52;7.50;;;6.70;99.90;;;;;;6211169;23;20075;-75
2023/11/18 00:48:38;;;;;;;15.70;6.55;;;6.70;99.90;;;;;;6211848;23;20391;-76
2023/11/18 00:51:05;;;;;;;20.35;7.15;;;6.60;99.90;;;;;;6211567;23;20009;-76
2023/11/18 00:53:31;;;;;;;15.55;7.50;;;6.60;99.90;;;;;;6213458;23;20016;-75
2023/11/18 00:55:56;;;;;;;15.68;7.32;;;6.60;99.90;;;;;;6209767;23;20013;-76
2023/11/18 00:58:22;;;;;;;16.08;7.97;;;6.50;99.90;;;;;;6212659;23;20036;-75
2023/11/18 01:00:48;;;;;;;17.83;7.53;;;6.50;99.90;;;;;;6212587;23;20298;-75
2023/11/18 01:03:14;;;;;;;22.92;7.93;;;6.50;99.90;;;;;;6212990;23;20088;-76
2023/11/18 01:05:39;;;;;;;20.70;8.23;;;6.50;99.90;;;;;;6212019;23;20071;-75
2023/11/18 01:08:05;;;;;;;20.50;7.50;;;6.40;99.90;;;;;;6212637;23;20435;-75
2023/11/18 01:10:31;;;;;;;21.98;7.47;;;6.50;99.90;;;;;;6211061;23;20016;-75
2023/11/18 01:12:57;;;;;;;16.45;7.55;;;6.40;99.90;;;;;;6209697;23;20541;-76
2023/11/18 01:15:23;;;;;;;13.35;7.43;;;6.40;99.90;;;;;;6211586;23;20075;-75
2023/11/18 01:17:49;;;;;;;17.13;7.68;;;6.40;99.90;;;;;;6210488;23;20008;-75
2023/11/18 01:20:20;;;;;;;16.90;6.57;;;6.40;99.90;;;;;;6211689;23;20040;-77
2023/11/18 01:22:47;;;;;;;15.77;7.40;;;6.40;99.90;;;;;;6210822;23;20308;-76
2023/11/18 01:25:12;;;;;;;15.32;7.22;;;6.40;99.90;;;;;;6214346;23;20067;-76
2023/11/18 01:27:39;;;;;;;15.68;7.22;;;6.40;99.90;;;;;;6210937;23;20025;-75
2023/11/18 01:30:05;;;;;;;15.50;6.68;;;6.40;99.90;;;;;;6213516;23;20382;-75
2023/11/18 01:32:31;;;;;;;15.45;7.40;;;6.40;99.90;;;;;;6213305;23;20276;-77
2023/11/18 01:34:57;;;;;;;14.57;6.03;;;6.40;99.90;;;;;;6212059;23;20026;-75
2023/11/18 01:37:24;;;;;;;21.15;7.78;;;6.50;99.90;;;;;;6214480;23;20078;-75
2023/11/18 01:39:49;;;;;;;16.42;7.38;;;6.50;99.90;;;;;;6211285;23;20024;-75
2023/11/18 01:42:15;;;;;;;14.38;6.68;;;6.50;99.90;;;;;;6212557;23;20009;-75
2023/11/18 01:44:41;;;;;;;15.02;7.28;;;6.50;99.90;;;;;;6214423;23;20004;-75
2023/11/18 01:47:10;;;;;;;16.50;6.85;;;6.50;99.90;;;;;;6214773;23;20009;-75
2023/11/18 01:49:39;;;;;;;17.40;6.90;;;6.50;99.90;;;;;;6211926;23;20027;-76
2023/11/18 01:52:07;;;;;;;13.27;5.90;;;6.60;99.90;;;;;;6213196;23;20004;-75
2023/11/18 01:54:37;;;;;;;12.00;6.53;;;6.50;99.90;;;;;;6213130;23;20020;-75
2023/11/18 01:57:05;;;;;;;16.00;6.65;;;6.50;99.90;;;;;;6210698;23;20605;-75
2023/11/18 01:59:33;;;;;;;40.40;7.75;;;6.50;99.90;;;;;;6213185;23;20011;-76
2023/11/18 02:01:59;;;;;;;14.32;6.82;;;6.60;99.90;;;;;;6212629;23;20009;-76
2023/11/18 02:04:25;;;;;;;13.85;5.97;;;6.60;99.90;;;;;;6211159;23;20343;-76
2023/11/18 02:06:52;;;;;;;19.83;7.25;;;6.60;99.90;;;;;;6209574;23;20319;-76
2023/11/18 02:09:19;;;;;;;14.77;6.25;;;6.60;99.90;;;;;;6211623;23;20413;-74
2023/11/18 02:12:11;;;;;;;15.48;6.88;;;6.60;99.90;;;;;;6211999;23;20008;-74
2023/11/18 02:14:39;;;;;;;12.38;6.30;;;6.60;99.90;;;;;;6209800;23;20043;-75
2023/11/18 02:17:06;;;;;;;19.08;6.32;;;6.60;99.90;;;;;;6213742;23;20016;-75
2023/11/18 02:19:34;;;;;;;15.75;5.57;;;6.60;99.90;;;;;;6213664;23;20385;-77
2023/11/18 02:22:01;;;;;;;14.15;6.75;;;6.60;99.90;;;;;;6211050;23;20092;-77
2023/11/18 02:24:36;;;;;;;12.30;6.30;;;6.60;99.90;;;;;;6214394;23;20217;-78
2023/11/18 02:27:02;;;;;;;18.35;7.53;;;6.60;99.90;;;;;;6212983;23;20016;-77
2023/11/18 02:29:32;;;;;;;20.20;6.07;;;6.60;99.90;;;;;;6212329;23;20088;-74
2023/11/18 02:32:03;;;;;;;14.10;6.25;;;6.50;99.90;;;;;;6212845;23;20012;-76
2023/11/18 02:34:30;;;;;;;;;;;6.60;99.90;;;;;;6215120;22;20005;-75
2023/11/18 02:37:00;;;;;;;20.10;7.28;;;6.50;99.90;;;;;;6215232;23;20465;-75
2023/11/18 02:39:33;;;;;;;18.25;7.25;;;6.50;99.90;;;;;;6211141;23;20016;-77
2023/11/18 02:42:01;;;;;;;16.63;6.53;;;6.50;99.90;;;;;;6209935;23;20051;-77
2023/11/18 02:44:31;;;;;;;15.93;5.88;;;6.50;99.90;;;;;;6211534;23;20801;-76
2023/11/18 02:46:58;;;;;;;19.17;6.65;;;6.50;99.90;;;;;;6211364;23;20012;-75
2023/11/18 02:49:25;;;;;;;16.10;6.75;;;6.50;99.90;;;;;;6210737;23;20020;-75
2023/11/18 02:51:50;;;;;;;16.55;6.85;;;6.50;99.90;;;;;;6211013;23;20075;-75
2023/11/18 02:54:16;;;;;;;15.70;7.03;;;6.50;99.90;;;;;;6210618;23;20088;-76
2023/11/18 02:56:42;;;;;;;18.02;7.07;;;6.50;99.90;;;;;;6209283;23;20008;-75
2023/11/18 02:59:07;;;;;;;15.38;6.82;;;6.50;99.90;;;;;;6211954;23;20020;-76
2023/11/18 03:01:38;;;;;;;11.05;6.50;;;6.50;99.90;;;;;;6212932;23;20012;-74
2023/11/18 03:04:05;;;;;;;17.33;7.13;;;6.50;99.90;;;;;;6210114;23;20008;-76
2023/11/18 03:06:32;;;;;;;17.13;7.25;;;6.50;99.90;;;;;;6212686;23;20036;-75
2023/11/18 03:08:58;;;;;;;14.38;6.00;;;6.50;99.90;;;;;;6209988;23;20009;-74
2023/11/18 03:11:23;;;;;;;16.30;6.82;;;6.50;99.90;;;;;;6212551;23;20012;-76
2023/11/18 03:13:49;;;;;;;16.92;6.85;;;6.50;99.90;;;;;;6211105;23;20028;-76
2023/11/18 03:16:15;;;;;;;18.90;7.90;;;6.50;99.90;;;;;;6211823;23;20028;-74
2023/11/18 03:18:41;;;;;;;13.15;6.35;;;6.60;99.90;;;;;;6212578;23;20024;-75
2023/11/18 03:21:13;;;;;;;14.00;6.25;;;6.60;99.90;;;;;;6211181;23;20020;-75
2023/11/18 03:23:42;;;;;;;15.82;6.82;;;6.60;99.90;;;;;;6212667;23;20017;-74
2023/11/18 03:26:10;;;;;;;14.18;6.68;;;6.60;99.90;;;;;;6215714;23;20016;-74
2023/11/18 03:28:36;;;;;;;12.48;6.82;;;6.60;99.90;;;;;;6210532;23;20005;-75
2023/11/18 03:31:04;;;;;;;17.45;7.03;;;6.60;99.90;;;;;;6212936;23;20009;-76
2023/11/18 03:33:29;;;;;;;16.38;6.65;;;6.60;99.90;;;;;;6212535;23;20064;-78
2023/11/18 03:35:55;;;;;;;13.77;6.15;;;6.70;99.90;;;;;;6209678;23;20087;-74
2023/11/18 03:38:22;;;;;;;12.90;6.25;;;6.70;99.90;;;;;;6209797;23;20345;-76
2023/11/18 03:40:47;;;;;;;15.40;6.65;;;6.70;99.90;;;;;;6210258;23;20077;-76
2023/11/18 03:43:13;;;;;;;14.95;7.85;;;6.70;99.90;;;;;;6211987;23;20091;-75
2023/11/18 03:45:40;;;;;;;18.00;6.38;;;6.70;99.90;;;;;;6211218;23;20008;-75
2023/11/18 03:48:06;;;;;;;16.52;6.80;;;6.70;99.90;;;;;;6210026;23;20355;-75
2023/11/18 03:50:32;;;;;;;15.45;7.03;;;6.70;99.90;;;;;;6210157;23;20088;-78
2023/11/18 03:52:58;;;;;;;11.15;6.20;;;6.70;99.90;;;;;;6209454;23;20016;-77
2023/11/18 03:55:25;;;;;;;13.38;6.97;;;6.70;99.90;;;;;;6210492;23;20017;-76
2023/11/18 03:57:52;;;;;;;16.63;6.60;;;6.70;99.90;;;;;;6211812;23;20347;-78
2023/11/18 04:00:18;;;;;;;20.98;7.53;;;6.70;99.90;;;;;;6212655;23;20024;-76
2023/11/18 04:02:45;;;;;;;13.15;5.95;;;6.70;99.90;;;;;;6210260;23;20017;-77
2023/11/18 04:05:11;;;;;;;14.82;6.05;;;6.70;99.90;;;;;;6213216;23;20048;-75
2023/11/18 04:07:37;;;;;;;14.85;6.90;;;6.70;99.90;;;;;;6212236;23;20346;-76
2023/11/18 04:10:05;;;;;;;15.10;6.90;;;6.70;99.90;;;;;;6214147;23;20015;-75
2023/11/18 04:12:31;;;;;;;12.38;6.80;;;6.70;99.90;;;;;;6213070;23;20354;-75
2023/11/18 04:14:56;;;;;;;13.65;6.32;;;6.70;99.90;;;;;;6217396;23;20016;-75
2023/11/18 04:17:22;;;;;;;11.48;6.50;;;6.70;99.90;;;;;;6215893;23;20005;-77
2023/11/18 04:19:48;;;;;;;13.90;6.47;;;6.70;99.90;;;;;;6211449;23;20008;-74
2023/11/18 04:22:13;;;;;;;14.65;5.82;;;6.70;99.90;;;;;;6214355;23;20021;-75
2023/11/18 04:24:39;;;;;;;17.38;6.97;;;6.70;99.90;;;;;;6211529;23;20055;-75
2023/11/18 04:27:04;;;;;;;15.43;6.18;;;6.70;99.90;;;;;;6145136;22;20014;-75
2023/11/18 04:29:30;;;;;;;16.15;6.57;;;6.70;99.90;;;;;;6179917;23;20019;-76
2023/11/18 04:31:55;;;;;;;19.20;7.40;;;6.70;99.90;;;;;;6177680;23;20101;-75
2023/11/18 04:34:21;;;;;;;14.27;6.15;;;6.70;99.90;;;;;;6180228;23;20009;-79
2023/11/18 04:36:47;;;;;;;17.13;7.30;;;6.70;99.90;;;;;;6179373;23;20343;-76
2023/11/18 04:39:12;;;;;;;12.35;6.15;;;6.70;99.90;;;;;;6204919;23;20092;-76
2023/11/18 04:41:38;;;;;;;14.23;6.82;;;6.70;99.90;;;;;;6178735;23;20013;-75
2023/11/18 04:44:04;;;;;;;13.32;6.15;;;6.70;99.90;;;;;;6204460;23;20056;-74
2023/11/18 04:46:29;;;;;;;13.52;6.50;;;6.70;99.90;;;;;;6204713;23;20778;-76
2023/11/18 04:48:56;;;;;;;12.73;5.88;;;6.70;99.90;;;;;;6203766;23;20084;-76
2023/11/18 04:51:22;;;;;;;21.80;5.95;;;6.70;99.90;;;;;;6181719;23;20029;-76
2023/11/18 04:53:48;;;;;;;11.95;5.45;;;6.70;99.90;;;;;;6203937;23;20342;-76
2023/11/18 04:56:16;;;;;;;18.08;6.65;;;6.80;99.90;;;;;;6181326;23;20096;-76
2023/11/18 04:58:42;;;;;;;13.60;5.80;;;6.80;99.90;;;;;;6203875;23;20016;-76
2023/11/18 05:01:08;;;;;;;13.85;5.43;;;6.80;99.90;;;;;;6204411;23;20009;-76
2023/11/18 05:03:35;;;;;;;12.30;6.25;;;6.80;99.90;;;;;;6181622;23;20469;-76
2023/11/18 05:06:00;;;;;;;19.50;7.10;;;6.80;99.90;;;;;;6204419;23;20011;-76
2023/11/18 05:08:26;;;;;;;13.70;5.53;;;6.80;99.90;;;;;;6180622;23;20100;-75
2023/11/18 05:10:52;;;;;;;20.10;5.78;;;6.80;99.90;;;;;;6178512;23;20059;-76
2023/11/18 05:13:18;;;;;;;24.50;6.20;;;6.80;99.90;;;;;;6205112;23;20013;-76
2023/11/18 05:15:45;;;;;;;16.23;6.35;;;6.80;99.90;;;;;;6203542;23;20024;-74
2023/11/18 05:18:15;;;;;;;16.75;5.35;;;6.80;99.90;;;;;;6204505;23;20020;-77
2023/11/18 05:20:41;;;;;;;17.13;6.15;;;6.90;99.90;;;;;;6203309;23;20379;-75
2023/11/18 05:23:09;;;;;;;19.08;7.18;;;6.90;99.90;;;;;;6204537;23;20320;-76
2023/11/18 05:25:36;;;;;;;25.88;6.93;;;6.90;99.90;;;;;;6203624;23;20009;-77
2023/11/18 05:28:02;;;;;;;25.33;7.97;;;6.90;99.90;;;;;;6204560;23;20020;-76
2023/11/18 05:30:27;;;;;;;22.10;6.20;;;6.90;99.90;;;;;;6204786;23;20051;-76
2023/11/18 05:32:53;;;;;;;20.50;7.55;;;6.90;99.90;;;;;;6177932;23;20009;-76
2023/11/18 05:35:19;;;;;;;30.40;8.45;;;6.90;99.90;;;;;;6204174;23;20040;-75
2023/11/18 05:37:44;;;;;;;16.95;6.93;;;6.90;99.90;;;;;;6180445;23;20379;-76
2023/11/18 05:40:15;;;;;;;21.60;6.65;;;6.90;99.90;;;;;;6204741;23;20347;-76
2023/11/18 05:42:41;;;;;;;23.13;6.55;;;6.90;99.90;;;;;;6178864;23;20013;-77
2023/11/18 05:45:09;;;;;;;31.75;6.15;;;6.90;99.90;;;;;;6204597;23;20037;-75
2023/11/18 05:47:35;;;;;;;19.70;6.40;;;6.90;99.90;;;;;;6204753;23;20017;-76
2023/11/18 05:50:00;;;;;;;18.52;6.40;;;6.90;99.90;;;;;;6178845;23;20412;-76
2023/11/18 05:52:26;;;;;;;19.13;6.47;;;6.90;99.90;;;;;;6205159;23;20017;-75
2023/11/18 05:54:52;;;;;;;18.40;6.85;;;6.90;99.90;;;;;;6180344;23;20013;-76
2023/11/18 05:57:18;;;;;;;17.70;7.35;;;6.90;99.90;;;;;;6203407;23;20001;-76
2023/11/18 05:59:46;;;;;;;24.48;7.45;;;6.90;99.90;;;;;;6203584;23;20060;-76
2023/11/18 06:02:17;;;;;;;16.67;6.03;;;7.00;99.90;;;;;;6204853;23;20063;-76
2023/11/18 06:04:43;;;;;;;18.83;6.63;;;6.90;99.90;;;;;;6202409;23;20024;-76
2023/11/18 06:07:09;;;;;;;19.25;7.53;;;7.00;99.90;;;;;;6204396;23;20009;-76
2023/11/18 06:09:34;;;;;;;19.13;6.60;;;7.00;99.90;;;;;;6203940;23;20377;-77
2023/11/18 06:12:00;;;;;;;21.00;6.50;;;6.90;99.90;;;;;;6177989;23;20013;-75
2023/11/18 06:14:26;;;;;;;24.30;6.57;;;6.90;99.90;;;;;;6177658;23;20016;-74
2023/11/18 06:16:52;;;;;;;19.45;6.78;;;6.90;99.90;;;;;;6201294;23;20036;-77
2023/11/18 06:19:18;;;;;;;20.58;6.47;;;6.90;99.90;;;;;;6202880;23;20518;-73
2023/11/18 06:21:44;;;;;;;22.42;7.40;;;6.90;99.90;;;;;;6201829;23;20005;-74
2023/11/18 06:24:11;;;;;;;19.52;7.03;;;6.90;99.90;;;;;;6203179;23;20070;-74
2023/11/18 06:26:36;;;;;;;14.80;5.97;;;7.00;99.90;;;;;;6201608;23;20013;-75
2023/11/18 06:29:03;;;;;;;16.45;6.72;;;7.00;99.90;;;;;;6202849;23;20544;-73
2023/11/18 06:31:30;;;;;;;26.52;8.13;;;6.90;99.90;;;;;;6207151;23;20009;-74
2023/11/18 06:33:56;;;;;;;19.45;7.85;;;6.90;99.90;;;;;;6183102;23;20084;-74
2023/11/18 06:36:22;;;;;;;20.52;6.43;;;6.90;99.90;;;;;;6204045;23;20052;-73
2023/11/18 06:38:52;;;;;;;19.15;6.55;;;6.90;99.90;;;;;;6202489;23;20044;-74
2023/11/18 06:41:19;;;;;;;18.17;6.47;;;6.90;99.90;;;;;;6179394;23;20084;-73
2023/11/18 06:44:31;;;;;;;17.20;6.68;;;6.90;99.90;;;;;;6202579;23;20017;-74
2023/11/18 06:46:36;;;;;;;16.40;6.45;;;6.90;99.90;;;;;;6174455;23;20012;-74
2023/11/18 06:49:03;;;;;;;21.45;7.47;;;6.90;99.90;;;;;;6203198;23;20004;-74
2023/11/18 06:51:34;;;;;;;14.20;5.70;;;7.00;99.90;;;;;;6203956;23;20017;-74
2023/11/18 06:54:04;;;;;;;17.15;6.28;;;6.90;99.90;;;;;;6202147;23;20012;-74
2023/11/18 06:56:30;;;;;;;27.50;6.85;;;6.90;99.90;;;;;;6202180;23;20473;-75
2023/11/18 06:58:55;;;;;;;22.00;7.75;;;6.90;99.90;;;;;;6201816;23;20017;-74
2023/11/18 07:01:21;;;;;;;13.88;6.40;;;6.90;99.90;;;;;;6203013;23;20080;-76
2023/11/18 07:03:52;;;;;;;13.50;5.68;;;6.90;99.90;;;;;;6202099;23;20347;-74
2023/11/18 07:06:22;;;;;;;24.13;7.10;;;6.90;99.90;;;;;;6179193;23;20481;-74
2023/11/18 07:08:51;;;;;;;13.80;6.13;;;6.90;99.90;;;;;;6201466;23;20324;-76
2023/11/18 07:11:17;;;;;;;22.55;6.90;;;6.90;99.90;;;;;;6179083;23;20023;-75
2023/11/18 07:13:47;;;;;;;17.98;6.90;;;6.90;99.90;;;;;;6176161;23;20104;-75
2023/11/18 07:16:14;;;;;;;19.83;6.95;;;6.90;99.90;;;;;;6202304;23;20422;-76
2023/11/18 07:18:42;;;;;;;17.92;6.47;;;6.90;99.90;;;;;;6176375;23;20020;-74
2023/11/18 07:21:09;;;;;;;20.38;6.43;;;6.90;99.90;;;;;;6179351;23;20013;-75
2023/11/18 07:23:34;;;;;;;13.68;5.88;;;6.90;99.90;;;;;;6202971;23;20092;-75
2023/11/18 07:26:01;;;;;;;17.67;6.22;;;6.90;99.90;;;;;;6176178;23;20459;-75
2023/11/18 07:28:26;;;;;;;22.92;7.05;;;6.90;99.90;;;;;;6179148;23;20020;-74
2023/11/18 07:30:53;;;;;;;17.73;6.13;;;6.80;99.90;;;;;;6201384;23;20098;-76
2023/11/18 07:33:20;;;;;;;15.23;5.90;;;6.90;99.90;;;;;;6178578;23;20707;-75
2023/11/18 07:35:48;;;;;;;23.25;6.90;;;6.90;99.90;;;;;;6200895;23;20044;-75
2023/11/18 07:38:14;;;;;;;20.13;7.05;;;6.90;99.90;;;;;;6202029;23;20013;-75
2023/11/18 07:40:45;;;;;;;16.30;7.28;;;6.80;99.90;;;;;;6201039;23;20064;-75
2023/11/18 07:43:11;;;;;;;13.77;6.22;;;6.90;99.90;;;;;;6201997;23;20484;-74
2023/11/18 07:45:39;;;;;;;17.83;7.57;;;6.90;99.90;;;;;;6201111;23;20017;-75
2023/11/18 07:48:06;;;;;;;16.60;6.78;;;6.90;99.90;;;;;;6203501;23;20017;-75
2023/11/18 07:50:36;;;;;;;16.08;6.90;;;6.80;99.90;;;;;;6181363;23;20015;-74
2023/11/18 07:53:02;;;;;;;11.40;5.25;;;6.90;99.90;;;;;;6178439;23;20013;-75
2023/11/18 07:55:29;;;;;;;21.92;7.50;;;6.80;99.90;;;;;;6179580;23;20025;-76
2023/11/18 07:57:55;;;;;;;19.33;7.32;;;6.90;99.90;;;;;;6203428;23;20019;-75
2023/11/18 08:00:20;;;;;;;14.57;6.25;;;6.80;99.90;;;;;;6204421;23;20017;-76
2023/11/18 08:02:46;;;;;;;14.98;6.32;;;6.80;99.90;;;;;;6203162;23;20009;-77
2023/11/18 08:05:15;;;;;;;17.38;7.15;;;6.80;99.90;;;;;;6203957;23;20358;-76
2023/11/18 08:07:43;;;;;;;16.55;5.93;;;6.80;99.90;;;;;;6198805;23;20016;-76
2023/11/18 08:10:12;;;;;;;14.88;6.13;;;6.80;99.90;;;;;;6203136;23;20005;-75
2023/11/18 08:12:39;;;;;;;16.42;6.40;;;6.80;99.90;;;;;;6178211;23;20016;-76
2023/11/18 08:15:06;;;;;;;19.42;7.55;;;6.70;99.90;;;;;;6203192;23;20116;-76
2023/11/18 08:17:32;;;;;;;21.17;7.28;;;6.70;99.90;;;;;;6202670;23;20015;-76
2023/11/18 08:19:57;;;;;;;15.75;6.97;;;6.70;99.90;;;;;;6201581;23;20013;-76
2023/11/18 08:22:23;;;;;;;14.45;6.43;;;6.70;99.90;;;;;;6179656;23;20044;-76
2023/11/18 08:24:50;;;;;;;15.45;6.50;;;6.70;99.90;;;;;;6175061;23;20494;-76
2023/11/18 08:27:16;;;;;;;20.25;6.80;;;6.70;99.90;;;;;;6202601;23;20343;-78
2023/11/18 08:29:42;;;;;;;15.70;6.38;;;6.70;99.90;;;;;;6201410;23;20088;-78
2023/11/18 08:32:09;;;;;;;15.00;6.03;;;6.70;99.90;;;;;;6179626;23;20012;-76
2023/11/18 08:34:37;;;;;;;26.95;7.03;;;6.70;99.90;;;;;;6202007;23;20009;-76
2023/11/18 08:37:04;;;;;;;12.45;5.35;;;6.70;99.90;;;;;;6176479;23;20084;-77
2023/11/18 08:39:30;;;;;;;15.32;5.97;;;6.70;99.90;;;;;;6202610;23;20032;-76
2023/11/18 08:41:56;;;;;;;15.23;6.35;;;6.70;99.90;;;;;;6201456;23;20120;-77
2023/11/18 08:44:23;;;;;;;13.95;5.30;;;6.70;99.90;;;;;;6202245;23;20036;-76
2023/11/18 08:46:51;;;;;;;12.57;5.30;;;6.70;99.90;;;;;;6200981;23;20462;-76
2023/11/18 08:49:21;;;;;;;14.95;5.47;;;6.70;99.90;;;;;;6179219;23;20017;-77
2023/11/18 08:51:55;;;;;;;13.85;4.97;;;6.80;99.90;;;;;;6176159;23;20013;-77
2023/11/18 08:54:36;;;;;;;11.80;5.57;;;6.80;99.90;;;;;;6202126;23;20039;-77
2023/11/18 08:57:03;;;;;;;13.30;4.85;;;6.80;99.90;;;;;;6201718;23;20031;-77
2023/11/18 08:59:30;;;;;;;17.80;4.32;;;6.80;99.90;;;;;;6201909;23;20334;-75
2023/11/18 09:01:58;;;;;;;12.68;4.32;;;6.90;99.90;;;;;;6178364;23;20020;-77
2023/11/18 09:04:25;;;;;;;13.82;5.07;;;6.90;99.90;;;;;;6202390;23;20088;-76
2023/11/18 09:06:54;;;;;;;19.67;5.20;;;6.90;99.90;;;;;;6201721;23;20016;-76
2023/11/18 09:09:29;;;;;;;13.95;4.55;;;6.90;99.90;;;;;;6202349;23;20016;-75
2023/11/18 09:11:58;;;;;;;17.77;4.35;;;6.90;99.90;;;;;;6201595;23;20060;-75
2023/11/18 09:14:25;;;;;;;12.10;3.90;;;6.90;99.90;;;;;;6202400;23;20100;-76
2023/11/18 09:16:58;;;;;;;13.50;4.03;;;6.90;99.90;;;;;;6177561;23;20241;-76
2023/11/18 09:19:25;;;;;;;12.75;3.80;;;6.80;99.90;;;;;;6179222;23;20099;-75
2023/11/18 09:21:51;;;;;;;15.20;4.07;;;6.80;99.90;;;;;;6207808;23;20014;-74
2023/11/18 09:24:19;;;;;;;15.55;4.45;;;6.90;99.90;;;;;;6207951;23;20013;-75
2023/11/18 09:26:49;;;;;;;13.68;4.18;;;6.90;99.90;;;;;;6204736;23;20466;-75
2023/11/18 09:29:17;;;;;;;13.82;4.25;;;6.90;99.90;;;;;;6203592;23;20052;-74
2023/11/18 09:31:49;;;;;;;21.15;4.65;;;6.90;99.90;;;;;;6201645;23;20033;-74
2023/11/18 09:34:16;;;;;;;11.05;3.67;;;6.90;99.90;;;;;;6202952;23;20001;-77
2023/11/18 09:36:45;;;;;;;8.70;3.50;;;6.90;99.90;;;;;;6200292;23;20017;-75
2023/11/18 09:39:28;;;;;;;15.38;4.95;;;6.90;99.90;;;;;;6203223;23;20023;-75
2023/11/18 09:41:57;;;;;;;16.60;3.90;;;6.90;99.90;;;;;;6201739;23;20448;-76
2023/11/18 09:44:27;;;;;;;13.15;3.95;;;6.90;99.90;;;;;;6177305;23;20028;-77
2023/11/18 09:47:04;;;;;;;9.48;3.92;;;7.00;99.90;;;;;;6200021;23;20450;-76
2023/11/18 09:49:38;;;;;;;9.15;3.17;;;7.00;99.90;;;;;;6178241;23;20019;-75
2023/11/18 09:52:06;;;;;;;12.05;2.97;;;7.00;99.90;;;;;;6200634;23;20009;-76
2023/11/18 09:54:57;;;;;;;8.57;3.00;;;7.00;99.90;;;;;;6201820;23;20079;-77
2023/11/18 09:57:39;;;;;;;10.60;3.42;;;7.00;99.90;;;;;;6176338;23;20009;-77
2023/11/18 10:02:51;;;;;;;11.40;3.45;;;7.00;99.90;;;;;;6177950;23;20071;-76
2023/11/18 10:05:20;;;;;;;9.57;2.65;;;7.10;99.90;;;;;;6178966;23;20024;-75
2023/11/18 10:07:49;;;;;;;9.55;3.30;;;7.10;99.90;;;;;;6200978;23;20017;-76
2023/11/18 10:10:16;;;;;;;8.40;2.47;;;7.10;99.90;;;;;;6178360;23;20017;-75
2023/11/18 10:12:45;;;;;;;8.60;3.28;;;7.20;99.90;;;;;;6199837;23;20009;-76
2023/11/18 10:15:15;;;;;;;10.40;2.95;;;7.20;99.90;;;;;;6202754;23;20130;-76
2023/11/18 10:17:55;;;;;;;7.82;2.55;;;7.20;99.90;;;;;;6201639;23;20066;-76
2023/11/18 10:20:25;;;;;;;12.63;3.37;;;7.20;99.90;;;;;;6201230;23;20008;-77
2023/11/18 10:23:07;;;;;;;11.80;3.35;;;7.20;99.90;;;;;;6201427;23;20247;-76
2023/11/18 10:25:34;;;;;;;15.73;3.33;;;7.20;99.90;;;;;;6177062;23;20021;-76
2023/11/18 10:28:02;;;;;;;6.35;2.00;;;7.20;99.90;;;;;;6201344;22;20017;-76
2023/11/18 10:30:31;;;;;;;12.40;3.60;;;7.20;99.90;;;;;;6203470;23;20366;-77
2023/11/18 10:33:05;;;;;;;10.93;2.63;;;7.20;99.90;;;;;;6204673;23;20017;-77
2023/11/18 10:35:37;;;;;;;9.50;3.40;;;7.20;99.90;;;;;;6204909;23;20013;-77
2023/11/18 10:38:06;;;;;;;11.95;2.70;;;7.30;99.90;;;;;;6179258;23;20040;-76
2023/11/18 10:40:36;;;;;;;12.93;3.15;;;7.30;99.90;;;;;;6205319;23;20006;-77
2023/11/18 10:43:09;;;;;;;9.55;3.00;;;7.30;99.90;;;;;;6203435;23;20035;-76
2023/11/18 10:45:38;;;;;;;8.27;2.40;;;7.30;99.90;;;;;;6205354;23;20131;-76
2023/11/18 10:48:05;;;;;;;11.05;2.25;;;7.30;99.90;;;;;;6204308;23;20009;-77
2023/11/18 10:50:32;;;;;;;11.38;2.85;;;7.30;99.90;;;;;;6205556;23;20071;-77
2023/11/18 10:53:01;;;;;;;9.02;2.42;;;7.30;99.90;;;;;;6204079;23;20013;-77
2023/11/18 10:55:43;;;;;;;8.02;3.22;;;7.40;99.90;;;;;;6180317;23;20112;-77
2023/11/18 10:58:09;;;;;;;7.63;2.15;;;7.30;99.90;;;;;;6169971;23;20016;-78
2023/11/18 11:00:55;;;;;;;4.93;2.15;;;7.40;99.90;;;;;;6203516;23;20361;-78
2023/11/18 11:03:23;;;;;;;11.88;3.60;;;7.40;99.90;;;;;;6175315;23;20017;-76
2023/11/18 11:05:54;;;;;;;20.30;2.83;;;7.40;99.90;;;;;;6201588;23;20481;-77
2023/11/18 11:08:20;;;;;;;9.93;2.78;;;7.40;99.90;;;;;;6178698;23;20013;-77
2023/11/18 11:10:48;;;;;;;6.80;2.42;;;7.50;99.90;;;;;;6180868;23;20037;-75
2023/11/18 11:13:17;;;;;;;13.13;1.85;;;7.40;99.90;;;;;;6204956;23;20025;-78
2023/11/18 11:15:49;;;;;;;18.90;3.05;;;7.50;99.90;;;;;;6179276;23;20020;-78
2023/11/18 11:18:23;;;;;;;11.18;2.10;;;7.50;99.90;;;;;;6204327;23;20019;-77
2023/11/18 11:20:57;;;;;;;9.90;3.40;;;7.50;99.90;;;;;;6202826;23;20025;-75
2023/11/18 11:23:44;;;;;;;9.38;2.53;;;7.50;99.90;;;;;;6204605;23;20040;-76
2023/11/18 11:26:13;;;;;;;6.50;3.20;;;7.50;99.90;;;;;;6203619;23;20015;-77
2023/11/18 11:28:57;;;;;;;9.40;2.17;;;7.60;99.90;;;;;;6202470;23;20021;-77
2023/11/18 11:31:38;;;;;;;7.93;2.15;;;7.60;99.90;;;;;;6203285;23;20048;-76
2023/11/18 11:34:17;;;;;;;13.45;3.45;;;7.60;99.90;;;;;;6177257;23;20385;-76
2023/11/18 11:36:54;;;;;;;8.48;2.63;;;7.60;99.90;;;;;;6200606;23;20016;-72
2023/11/18 11:39:29;;;;;;;9.32;2.15;;;7.60;99.90;;;;;;6202259;23;20009;-74
2023/11/18 11:41:56;;;;;;;10.50;2.25;;;7.70;99.90;;;;;;6175789;23;20038;-73
2023/11/18 11:44:28;;;;;;;11.70;2.25;;;7.70;99.90;;;;;;6202727;23;20017;-75
2023/11/18 11:46:56;;;;;;;7.90;2.40;;;7.70;99.90;;;;;;6200656;23;20012;-75
2023/11/18 11:49:27;;;;;;;5.90;2.20;;;7.70;99.90;;;;;;6202528;23;20467;-74
2023/11/18 11:52:27;;;;;;;15.18;3.38;;;7.70;99.90;;;;;;6200388;23;20044;-73
2023/11/18 11:55:15;;;;;;;7.63;2.28;;;7.80;99.90;;;;;;6162918;23;20100;-72
2023/11/18 11:57:42;;;;;;;15.95;3.42;;;7.80;99.90;;;;;;6199373;23;20013;-74
2023/11/18 12:00:17;;;;;;;7.00;2.15;;;7.90;99.90;;;;;;6198740;23;20025;-73
2023/11/18 12:02:56;;;;;;;10.45;2.90;;;7.90;99.90;;;;;;6197536;23;20419;-74
2023/11/18 12:05:26;;;;;;;9.43;2.22;;;7.90;99.90;;;;;;6198816;23;20443;-73
2023/11/18 12:07:55;;;;;;;8.93;2.63;;;7.90;99.90;;;;;;6178808;23;20013;-73
2023/11/18 12:10:26;;;;;;;10.55;2.53;;;7.90;99.90;;;;;;6203783;23;20009;-75
2023/11/18 12:13:16;;;;;;;5.53;2.28;;;7.90;99.90;;;;;;6202134;23;20037;-72
2023/11/18 12:15:58;;;;;;;4.70;1.67;;;7.90;99.90;;;;;;6177847;23;20025;-72
2023/11/18 12:18:24;;;;;;;5.28;1.90;;;7.90;99.90;;;;;;6180285;23;20017;-73
2023/11/18 12:21:01;;;;;;;8.95;2.05;;;7.90;99.90;;;;;;6200872;23;20013;-72
2023/11/18 12:23:27;;;;;;;7.47;2.72;;;8.00;99.90;;;;;;6203024;23;20032;-72
2023/11/18 12:25:54;;;;;;;48.20;3.38;;;8.00;99.90;;;;;;6199040;23;20017;-73
2023/11/18 12:28:26;;;;;;;7.28;2.10;;;8.00;99.90;;;;;;6200467;23;20037;-73
2023/11/18 12:30:57;;;;;;;6.65;1.65;;;8.00;99.90;;;;;;6176588;23;20404;-74
2023/11/18 12:33:46;;;;;;;5.32;1.75;;;8.00;99.90;;;;;;6203169;23;20130;-73
2023/11/18 12:36:56;;;;;;;6.53;1.60;;;8.00;99.90;;;;;;6175487;23;20096;-74
2023/11/18 12:39:40;;;;;;;11.45;1.48;;;8.00;99.90;;;;;;6174166;23;20033;-76
2023/11/18 12:42:18;;;;;;;10.68;2.05;;;8.00;99.90;;;;;;6177882;23;20012;-72
2023/11/18 12:45:06;;;;;;;6.35;1.52;;;8.00;99.90;;;;;;6201403;23;20017;-73
2023/11/18 12:47:37;;;;;;;4.10;1.38;;;8.00;99.90;;;;;;6203129;23;20382;-73
2023/11/18 12:50:16;;;;;;;3.88;1.33;;;8.10;99.90;;;;;;6177199;23;20021;-75
2023/11/18 12:52:44;;;;;;;5.90;1.20;;;8.10;99.90;;;;;;6200664;23;20074;-72
2023/11/18 12:55:17;;;;;;;4.63;1.83;;;8.10;99.90;;;;;;6179601;23;20017;-73
2023/11/18 12:57:46;;;;;;;6.80;1.25;;;8.10;99.90;;;;;;6179496;23;20017;-72